sensor_id;sensor_type;location;lat;lon;timestamp;pressure;altitude;pressure_sealevel;temperature;humidity
61554;BME280;47425;51.976;5.326;2023-07-13T00:00:29;101253.97;;;24.92;44.96
61554;BME280;47425;51.976;5.326;2023-07-13T00:02:56;101246.03;;;24.79;44.39
61554;BME280;47425;51.976;5.326;2023-07-13T00:05:23;101248.75;;;24.66;44.40
61554;BME280;47425;51.976;5.326;2023-07-13T00:07:52;101257.19;;;24.73;44.98
61554;BME280;47425;51.976;5.326;2023-07-13T00:10:21;101251.88;;;24.84;45.00
61554;BME280;47425;51.976;5.326;2023-07-13T00:12:48;101242.16;;;24.83;44.51
61554;BME280;47425;51.976;5.326;2023-07-13T00:15:17;101249.78;;;24.76;44.85
61554;BME280;47425;51.976;5.326;2023-07-13T00:17:54;101249.66;;;24.78;44.95
61554;BME280;47425;51.976;5.326;2023-07-13T00:20:24;101245.22;;;24.66;44.01
61554;BME280;47425;51.976;5.326;2023-07-13T00:22:51;101251.41;;;24.53;45.07
61554;BME280;47425;51.976;5.326;2023-07-13T00:25:22;101259.81;;;24.49;45.18
61554;BME280;47425;51.976;5.326;2023-07-13T00:27:57;101257.13;;;24.49;45.61
61554;BME280;47425;51.976;5.326;2023-07-13T00:30:26;101249.63;;;24.54;45.72
61554;BME280;47425;51.976;5.326;2023-07-13T00:32:54;101251.06;;;24.71;45.24
61554;BME280;47425;51.976;5.326;2023-07-13T00:35:21;101248.59;;;24.81;44.75
61554;BME280;47425;51.976;5.326;2023-07-13T00:37:50;101249.97;;;24.73;44.77
61554;BME280;47425;51.976;5.326;2023-07-13T00:40:17;101249.03;;;24.74;45.32
61554;BME280;47425;51.976;5.326;2023-07-13T00:42:47;101249.31;;;24.83;44.98
61554;BME280;47425;51.976;5.326;2023-07-13T00:48:23;101253.53;;;24.74;45.29
61554;BME280;47425;51.976;5.326;2023-07-13T00:50:53;101260.81;;;24.72;44.85
61554;BME280;47425;51.976;5.326;2023-07-13T00:53:25;101258.13;;;24.72;44.98
61554;BME280;47425;51.976;5.326;2023-07-13T00:55:55;101257.19;;;24.73;44.29
61554;BME280;47425;51.976;5.326;2023-07-13T00:58:26;101247.66;;;24.69;45.13
61554;BME280;47425;51.976;5.326;2023-07-13T01:00:57;101254.06;;;24.79;44.74
61554;BME280;47425;51.976;5.326;2023-07-13T01:03:28;101254.84;;;24.92;45.00
61554;BME280;47425;51.976;5.326;2023-07-13T01:05:58;101264.53;;;25.06;44.80
61554;BME280;47425;51.976;5.326;2023-07-13T01:08:29;101259.94;;;25.20;44.35
61554;BME280;47425;51.976;5.326;2023-07-13T01:11:00;101224.22;;;25.08;43.95
61554;BME280;47425;51.976;5.326;2023-07-13T01:13:26;101252.53;;;25.23;44.23
61554;BME280;47425;51.976;5.326;2023-07-13T01:15:57;101249.91;;;25.10;43.68
61554;BME280;47425;51.976;5.326;2023-07-13T01:18:28;101252.25;;;24.91;43.96
61554;BME280;47425;51.976;5.326;2023-07-13T01:21:01;101257.97;;;24.86;44.83
61554;BME280;47425;51.976;5.326;2023-07-13T01:23:30;101262.78;;;24.70;45.04
61554;BME280;47425;51.976;5.326;2023-07-13T01:25:58;101267.72;;;24.63;43.56
61554;BME280;47425;51.976;5.326;2023-07-13T01:28:45;101271.34;;;24.62;44.89
61554;BME280;47425;51.976;5.326;2023-07-13T01:31:14;101265.06;;;24.37;44.89
61554;BME280;47425;51.976;5.326;2023-07-13T01:33:41;101271.53;;;24.35;45.87
61554;BME280;47425;51.976;5.326;2023-07-13T01:36:10;101261.22;;;24.41;45.45
61554;BME280;47425;51.976;5.326;2023-07-13T01:38:39;101262.78;;;24.44;45.51
61554;BME280;47425;51.976;5.326;2023-07-13T01:41:08;101261.84;;;24.45;45.12
61554;BME280;47425;51.976;5.326;2023-07-13T01:43:39;101257.97;;;24.49;45.03
61554;BME280;47425;51.976;5.326;2023-07-13T01:46:06;101255.63;;;24.44;45.09
61554;BME280;47425;51.976;5.326;2023-07-13T01:48:33;101261.69;;;24.59;45.19
61554;BME280;47425;51.976;5.326;2023-07-13T01:51:03;101264.38;;;24.72;44.58
61554;BME280;47425;51.976;5.326;2023-07-13T01:53:31;101269.25;;;24.78;44.80
61554;BME280;47425;51.976;5.326;2023-07-13T01:56:01;101265.84;;;24.76;43.64
61554;BME280;47425;51.976;5.326;2023-07-13T01:58:28;101262.78;;;24.57;45.07
61554;BME280;47425;51.976;5.326;2023-07-13T02:00:54;101268.56;;;24.63;45.02
61554;BME280;47425;51.976;5.326;2023-07-13T02:03:21;101256.66;;;24.68;44.86
61554;BME280;47425;51.976;5.326;2023-07-13T02:05:49;101272.41;;;24.72;44.33
61554;BME280;47425;51.976;5.326;2023-07-13T02:08:16;101274.56;;;24.67;44.67
61554;BME280;47425;51.976;5.326;2023-07-13T02:10:44;101270.56;;;24.60;45.03
61554;BME280;47425;51.976;5.326;2023-07-13T02:13:11;101276.09;;;24.45;45.13
61554;BME280;47425;51.976;5.326;2023-07-13T02:15:43;101271.81;;;24.43;44.83
61554;BME280;47425;51.976;5.326;2023-07-13T02:18:12;101275.00;;;24.48;45.31
61554;BME280;47425;51.976;5.326;2023-07-13T02:20:45;101275.75;;;24.50;45.43
61554;BME280;47425;51.976;5.326;2023-07-13T02:23:15;101271.03;;;24.54;44.83
61554;BME280;47425;51.976;5.326;2023-07-13T02:25:42;101277.66;;;24.11;45.37
61554;BME280;47425;51.976;5.326;2023-07-13T02:28:11;101268.53;;;23.75;45.62
61554;BME280;47425;51.976;5.326;2023-07-13T02:30:38;101275.16;;;23.82;46.73
61554;BME280;47425;51.976;5.326;2023-07-13T02:33:06;101282.16;;;23.98;46.25
61554;BME280;47425;51.976;5.326;2023-07-13T02:35:33;101278.94;;;23.92;46.42
61554;BME280;47425;51.976;5.326;2023-07-13T02:37:59;101284.19;;;23.94;46.23
61554;BME280;47425;51.976;5.326;2023-07-13T02:40:30;101278.09;;;23.92;45.92
61554;BME280;47425;51.976;5.326;2023-07-13T02:43:02;101283.66;;;24.02;45.97
61554;BME280;47425;51.976;5.326;2023-07-13T02:45:32;101280.13;;;24.01;45.93
61554;BME280;47425;51.976;5.326;2023-07-13T02:48:01;101274.03;;;23.99;46.07
61554;BME280;47425;51.976;5.326;2023-07-13T02:50:32;101275.81;;;24.11;46.18
61554;BME280;47425;51.976;5.326;2023-07-13T02:53:02;101273.44;;;24.20;45.49
61554;BME280;47425;51.976;5.326;2023-07-13T02:55:29;101266.66;;;24.03;45.89
61554;BME280;47425;51.976;5.326;2023-07-13T02:58:00;101268.25;;;24.05;46.29
61554;BME280;47425;51.976;5.326;2023-07-13T03:00:30;101281.63;;;23.92;46.53
61554;BME280;47425;51.976;5.326;2023-07-13T03:03:01;101282.03;;;23.99;46.54
61554;BME280;47425;51.976;5.326;2023-07-13T03:05:30;101282.34;;;24.07;46.18
61554;BME280;47425;51.976;5.326;2023-07-13T03:07:57;101292.75;;;24.12;46.50
61554;BME280;47425;51.976;5.326;2023-07-13T03:10:26;101284.06;;;24.21;46.20
61554;BME280;47425;51.976;5.326;2023-07-13T03:12:55;101290.69;;;24.28;45.59
61554;BME280;47425;51.976;5.326;2023-07-13T03:15:31;101287.34;;;24.38;45.66
61554;BME280;47425;51.976;5.326;2023-07-13T03:17:58;101293.44;;;24.40;45.85
61554;BME280;47425;51.976;5.326;2023-07-13T03:20:28;101285.94;;;24.45;45.25
61554;BME280;47425;51.976;5.326;2023-07-13T03:22:56;101286.63;;;24.60;45.44
61554;BME280;47425;51.976;5.326;2023-07-13T03:25:26;101296.63;;;24.58;44.99
61554;BME280;47425;51.976;5.326;2023-07-13T03:27:57;101294.25;;;24.66;45.08
61554;BME280;47425;51.976;5.326;2023-07-13T03:30:24;101291.47;;;24.68;44.99
61554;BME280;47425;51.976;5.326;2023-07-13T03:32:52;101296.28;;;24.75;45.23
61554;BME280;47425;51.976;5.326;2023-07-13T03:35:22;101297.75;;;24.79;44.81
61554;BME280;47425;51.976;5.326;2023-07-13T03:37:52;101296.84;;;24.68;45.13
61554;BME280;47425;51.976;5.326;2023-07-13T03:40:23;101293.31;;;24.54;45.38
61554;BME280;47425;51.976;5.326;2023-07-13T03:42:50;101297.34;;;24.60;44.98
61554;BME280;47425;51.976;5.326;2023-07-13T03:45:20;101298.25;;;24.48;45.17
61554;BME280;47425;51.976;5.326;2023-07-13T03:47:50;101299.63;;;24.53;45.28
61554;BME280;47425;51.976;5.326;2023-07-13T03:50:18;101300.59;;;24.52;44.79
61554;BME280;47425;51.976;5.326;2023-07-13T03:52:45;101306.91;;;24.64;45.25
61554;BME280;47425;51.976;5.326;2023-07-13T03:55:16;101315.75;;;24.77;44.77
61554;BME280;47425;51.976;5.326;2023-07-13T03:57:44;101316.06;;;24.86;44.43
61554;BME280;47425;51.976;5.326;2023-07-13T04:00:12;101319.72;;;24.85;44.19
61554;BME280;47425;51.976;5.326;2023-07-13T04:02:42;101326.78;;;24.86;44.56
61554;BME280;47425;51.976;5.326;2023-07-13T04:05:10;101324.00;;;24.87;44.78
61554;BME280;47425;51.976;5.326;2023-07-13T04:07:40;101333.63;;;24.90;44.62
61554;BME280;47425;51.976;5.326;2023-07-13T04:10:07;101329.00;;;24.92;44.57
61554;BME280;47425;51.976;5.326;2023-07-13T04:12:39;101329.00;;;24.92;44.42
61554;BME280;47425;51.976;5.326;2023-07-13T04:15:08;101329.97;;;24.91;44.32
61554;BME280;47425;51.976;5.326;2023-07-13T04:17:40;101338.00;;;24.91;44.25
61554;BME280;47425;51.976;5.326;2023-07-13T04:20:07;101341.75;;;24.88;44.17
61554;BME280;47425;51.976;5.326;2023-07-13T04:22:35;101339.41;;;24.84;44.01
61554;BME280;47425;51.976;5.326;2023-07-13T04:25:02;101341.06;;;24.73;44.80
61554;BME280;47425;51.976;5.326;2023-07-13T04:27:30;101344.38;;;24.77;44.67
61554;BME280;47425;51.976;5.326;2023-07-13T04:30:01;101351.44;;;24.78;44.53
61554;BME280;47425;51.976;5.326;2023-07-13T04:32:29;101350.81;;;24.74;44.56
61554;BME280;47425;51.976;5.326;2023-07-13T04:35:00;101354.16;;;24.52;45.14
61554;BME280;47425;51.976;5.326;2023-07-13T04:37:29;101347.50;;;24.58;45.13
61554;BME280;47425;51.976;5.326;2023-07-13T04:40:00;101351.91;;;24.59;45.07
61554;BME280;47425;51.976;5.326;2023-07-13T04:42:31;101340.41;;;24.57;44.42
61554;BME280;47425;51.976;5.326;2023-07-13T04:45:02;101356.72;;;24.54;44.88
61554;BME280;47425;51.976;5.326;2023-07-13T04:47:30;101365.16;;;24.60;45.29
61554;BME280;47425;51.976;5.326;2023-07-13T04:49:58;101351.78;;;24.60;45.17
61554;BME280;47425;51.976;5.326;2023-07-13T04:52:25;101356.59;;;24.68;45.27
61554;BME280;47425;51.976;5.326;2023-07-13T04:54:52;101351.22;;;24.68;44.86
61554;BME280;47425;51.976;5.326;2023-07-13T04:57:18;101347.34;;;24.85;44.69
61554;BME280;47425;51.976;5.326;2023-07-13T04:59:49;101354.25;;;24.76;45.00
61554;BME280;47425;51.976;5.326;2023-07-13T05:02:17;101346.69;;;24.82;44.97
61554;BME280;47425;51.976;5.326;2023-07-13T05:04:46;101350.09;;;24.96;44.34
61554;BME280;47425;51.976;5.326;2023-07-13T05:07:14;101358.84;;;25.11;43.98
61554;BME280;47425;51.976;5.326;2023-07-13T05:09:43;101357.03;;;25.36;44.05
61554;BME280;47425;51.976;5.326;2023-07-13T05:12:12;101349.25;;;25.44;43.37
61554;BME280;47425;51.976;5.326;2023-07-13T05:14:42;101362.94;;;25.53;43.35
61554;BME280;47425;51.976;5.326;2023-07-13T05:17:12;101355.22;;;25.37;43.47
61554;BME280;47425;51.976;5.326;2023-07-13T05:19:40;101371.66;;;25.19;43.63
61554;BME280;47425;51.976;5.326;2023-07-13T05:22:07;101361.84;;;25.07;43.98
61554;BME280;47425;51.976;5.326;2023-07-13T05:24:36;101365.66;;;24.91;44.61
61554;BME280;47425;51.976;5.326;2023-07-13T05:27:04;101372.56;;;25.07;44.42
61554;BME280;47425;51.976;5.326;2023-07-13T05:29:31;101373.47;;;25.19;43.76
61554;BME280;47425;51.976;5.326;2023-07-13T05:31:58;101378.91;;;25.30;44.02
61554;BME280;47425;51.976;5.326;2023-07-13T05:34:25;101378.03;;;25.29;44.06
61554;BME280;47425;51.976;5.326;2023-07-13T05:36:55;101377.94;;;25.31;43.52
61554;BME280;47425;51.976;5.326;2023-07-13T05:39:22;101386.84;;;25.32;43.48
61554;BME280;47425;51.976;5.326;2023-07-13T05:41:49;101387.84;;;25.18;43.71
61554;BME280;47425;51.976;5.326;2023-07-13T05:44:18;101387.56;;;25.09;44.10
61554;BME280;47425;51.976;5.326;2023-07-13T05:46:51;101389.94;;;25.01;44.35
61554;BME280;47425;51.976;5.326;2023-07-13T05:49:19;101392.28;;;25.06;44.54
61554;BME280;47425;51.976;5.326;2023-07-13T05:51:49;101401.25;;;25.18;44.11
61554;BME280;47425;51.976;5.326;2023-07-13T05:54:18;101401.25;;;25.18;44.42
61554;BME280;47425;51.976;5.326;2023-07-13T05:56:45;101392.59;;;25.14;44.21
61554;BME280;47425;51.976;5.326;2023-07-13T05:59:12;101405.78;;;25.04;44.26
61554;BME280;47425;51.976;5.326;2023-07-13T06:01:40;101412.19;;;25.15;44.31
61554;BME280;47425;51.976;5.326;2023-07-13T06:04:11;101412.41;;;24.87;44.28
61554;BME280;47425;51.976;5.326;2023-07-13T06:06:41;101417.09;;;24.84;44.99
61554;BME280;47425;51.976;5.326;2023-07-13T06:09:09;101415.91;;;24.88;44.71
61554;BME280;47425;51.976;5.326;2023-07-13T06:11:39;101419.78;;;24.84;45.19
61554;BME280;47425;51.976;5.326;2023-07-13T06:14:05;101418.22;;;25.05;44.79
61554;BME280;47425;51.976;5.326;2023-07-13T06:16:34;101419.47;;;25.12;44.11
61554;BME280;47425;51.976;5.326;2023-07-13T06:19:02;101425.56;;;24.90;44.95
61554;BME280;47425;51.976;5.326;2023-07-13T06:21:30;101434.25;;;24.94;44.57
61554;BME280;47425;51.976;5.326;2023-07-13T06:23:57;101439.72;;;24.79;45.49
61554;BME280;47425;51.976;5.326;2023-07-13T06:26:24;101428.47;;;24.74;44.95
61554;BME280;47425;51.976;5.326;2023-07-13T06:28:56;101429.00;;;24.92;45.19
61554;BME280;47425;51.976;5.326;2023-07-13T06:31:28;101444.00;;;25.19;44.67
61554;BME280;47425;51.976;5.326;2023-07-13T06:33:55;101424.09;;;25.23;44.11
61554;BME280;47425;51.976;5.326;2023-07-13T06:36:24;101434.53;;;25.39;44.24
61554;BME280;47425;51.976;5.326;2023-07-13T06:38:54;101437.03;;;25.42;44.09
61554;BME280;47425;51.976;5.326;2023-07-13T06:41:24;101440.38;;;25.57;43.19
61554;BME280;47425;51.976;5.326;2023-07-13T06:43:53;101437.72;;;25.69;43.25
61554;BME280;47425;51.976;5.326;2023-07-13T06:46:22;101441.91;;;25.73;43.44
61554;BME280;47425;51.976;5.326;2023-07-13T06:48:50;101443.28;;;25.78;43.49
61554;BME280;47425;51.976;5.326;2023-07-13T06:51:17;101439.50;;;25.81;43.60
61554;BME280;47425;51.976;5.326;2023-07-13T06:53:44;101440.50;;;25.91;43.00
61554;BME280;47425;51.976;5.326;2023-07-13T06:56:11;101455.59;;;26.05;42.82
61554;BME280;47425;51.976;5.326;2023-07-13T06:58:43;101452.81;;;26.07;43.27
61554;BME280;47425;51.976;5.326;2023-07-13T07:01:12;101454.94;;;26.02;42.73
61554;BME280;47425;51.976;5.326;2023-07-13T07:03:40;101454.06;;;26.01;42.60
61554;BME280;47425;51.976;5.326;2023-07-13T07:06:11;101451.31;;;26.03;42.55
61554;BME280;47425;51.976;5.326;2023-07-13T07:08:40;101456.50;;;25.93;43.17
61554;BME280;47425;51.976;5.326;2023-07-13T07:11:11;101464.78;;;25.90;43.41
61554;BME280;47425;51.976;5.326;2023-07-13T07:13:38;101458.69;;;25.88;43.57
61554;BME280;47425;51.976;5.326;2023-07-13T07:16:08;101472.84;;;26.01;42.99
61554;BME280;47425;51.976;5.326;2023-07-13T07:18:35;101470.13;;;26.03;43.29
61554;BME280;47425;51.976;5.326;2023-07-13T07:21:03;101477.16;;;26.04;42.95
61554;BME280;47425;51.976;5.326;2023-07-13T07:23:32;101466.94;;;26.09;43.34
61554;BME280;47425;51.976;5.326;2023-07-13T07:26:00;101473.91;;;26.11;43.23
61554;BME280;47425;51.976;5.326;2023-07-13T07:28:29;101468.59;;;26.23;42.89
61554;BME280;47425;51.976;5.326;2023-07-13T07:30:57;101476.03;;;26.30;42.51
61554;BME280;47425;51.976;5.326;2023-07-13T07:33:25;101471.88;;;26.26;42.54
61554;BME280;47425;51.976;5.326;2023-07-13T07:35:53;101466.63;;;26.25;42.58
61554;BME280;47425;51.976;5.326;2023-07-13T07:38:22;101466.00;;;26.21;43.10
61554;BME280;47425;51.976;5.326;2023-07-13T07:40:48;101472.25;;;26.22;42.73
61554;BME280;47425;51.976;5.326;2023-07-13T07:43:16;101472.56;;;26.17;42.82
61554;BME280;47425;51.976;5.326;2023-07-13T07:45:44;101472.09;;;26.12;42.62
61554;BME280;47425;51.976;5.326;2023-07-13T07:48:11;101474.88;;;26.10;43.22
61554;BME280;47425;51.976;5.326;2023-07-13T07:50:38;101475.06;;;25.96;43.14
61554;BME280;47425;51.976;5.326;2023-07-13T07:53:07;101462.47;;;25.85;43.74
61554;BME280;47425;51.976;5.326;2023-07-13T07:55:37;101482.84;;;25.88;43.81
61554;BME280;47425;51.976;5.326;2023-07-13T07:58:04;101474.47;;;25.79;43.49
61554;BME280;47425;51.976;5.326;2023-07-13T08:00:31;101468.31;;;25.66;44.32
61554;BME280;47425;51.976;5.326;2023-07-13T08:02:59;101471.34;;;25.86;44.48
61554;BME280;47425;51.976;5.326;2023-07-13T08:05:26;101479.22;;;26.00;43.43
61554;BME280;47425;51.976;5.326;2023-07-13T08:07:53;101468.66;;;26.10;43.22
61554;BME280;47425;51.976;5.326;2023-07-13T08:10:21;101465.28;;;26.30;43.19
61554;BME280;47425;51.976;5.326;2023-07-13T08:12:50;101456.38;;;26.41;42.82
61554;BME280;47425;51.976;5.326;2023-07-13T08:15:17;101462.03;;;26.50;42.46
61554;BME280;47425;51.976;5.326;2023-07-13T08:17:47;101453.25;;;26.48;42.44
61554;BME280;47425;51.976;5.326;2023-07-13T08:20:14;101458.09;;;26.42;42.90
61554;BME280;47425;51.976;5.326;2023-07-13T08:22:43;101465.78;;;26.24;42.82
61554;BME280;47425;51.976;5.326;2023-07-13T08:25:10;101470.59;;;26.08;43.23
61554;BME280;47425;51.976;5.326;2023-07-13T08:27:41;101464.88;;;26.12;43.41
61554;BME280;47425;51.976;5.326;2023-07-13T08:30:09;101471.84;;;26.15;43.68
61554;BME280;47425;51.976;5.326;2023-07-13T08:32:38;101470.97;;;26.03;43.44
61554;BME280;47425;51.976;5.326;2023-07-13T08:35:05;101468.91;;;26.07;43.55
61554;BME280;47425;51.976;5.326;2023-07-13T08:37:34;101474.91;;;26.22;43.22
61554;BME280;47425;51.976;5.326;2023-07-13T08:40:00;101477.47;;;26.23;43.61
61554;BME280;47425;51.976;5.326;2023-07-13T08:42:35;101476.34;;;26.15;43.51
61554;BME280;47425;51.976;5.326;2023-07-13T08:45:13;101495.50;;;26.10;44.10
61554;BME280;47425;51.976;5.326;2023-07-13T08:47:46;101489.38;;;26.08;43.64
61554;BME280;47425;51.976;5.326;2023-07-13T08:50:17;101501.63;;;26.12;44.00
61554;BME280;47425;51.976;5.326;2023-07-13T08:52:47;101497.22;;;26.11;43.55
61554;BME280;47425;51.976;5.326;2023-07-13T08:55:17;101498.94;;;26.12;43.83
61554;BME280;47425;51.976;5.326;2023-07-13T08:57:47;101496.53;;;26.20;43.47
61554;BME280;47425;51.976;5.326;2023-07-13T09:00:17;101493.72;;;26.22;43.58
61554;BME280;47425;51.976;5.326;2023-07-13T09:02:46;101498.38;;;26.31;42.87
61554;BME280;47425;51.976;5.326;2023-07-13T09:05:27;101502.78;;;26.43;42.82
61554;BME280;47425;51.976;5.326;2023-07-13T09:08:16;101493.78;;;26.56;42.75
61554;BME280;47425;51.976;5.326;2023-07-13T09:11:01;101495.91;;;26.75;42.50
61554;BME280;47425;51.976;5.326;2023-07-13T09:13:39;101482.84;;;26.82;41.72
61554;BME280;47425;51.976;5.326;2023-07-13T09:16:12;101486.75;;;26.89;41.75
61554;BME280;47425;51.976;5.326;2023-07-13T09:18:42;101494.19;;;26.96;42.13
61554;BME280;47425;51.976;5.326;2023-07-13T09:21:13;101492.25;;;26.99;41.56
61554;BME280;47425;51.976;5.326;2023-07-13T09:23:42;101491.28;;;27.00;41.82
61554;BME280;47425;51.976;5.326;2023-07-13T09:26:13;101491.16;;;27.01;42.29
61554;BME280;47425;51.976;5.326;2023-07-13T09:28:46;101491.03;;;26.91;42.05
61554;BME280;47425;51.976;5.326;2023-07-13T09:31:19;101489.19;;;27.03;42.26
61554;BME280;47425;51.976;5.326;2023-07-13T09:33:48;101488.69;;;27.09;42.05
61554;BME280;47425;51.976;5.326;2023-07-13T09:36:19;101489.66;;;27.08;41.84
61554;BME280;47425;51.976;5.326;2023-07-13T09:39:01;101491.41;;;26.98;41.74
61554;BME280;47425;51.976;5.326;2023-07-13T09:41:39;101474.41;;;26.86;41.75
61554;BME280;47425;51.976;5.326;2023-07-13T09:44:29;101491.38;;;26.87;41.78
61554;BME280;47425;51.976;5.326;2023-07-13T09:46:58;101494.09;;;26.75;42.23
61554;BME280;47425;51.976;5.326;2023-07-13T09:49:26;101485.16;;;26.75;43.08
61554;BME280;47425;51.976;5.326;2023-07-13T09:51:58;101496.53;;;26.78;42.73
61554;BME280;47425;51.976;5.326;2023-07-13T09:54:27;101499.91;;;26.69;42.54
61554;BME280;47425;51.976;5.326;2023-07-13T09:57:00;101502.34;;;26.61;42.45
61554;BME280;47425;51.976;5.326;2023-07-13T09:59:28;101498.56;;;26.63;42.56
61554;BME280;47425;51.976;5.326;2023-07-13T10:01:57;101496.72;;;26.64;42.43
61554;BME280;47425;51.976;5.326;2023-07-13T10:04:30;101508.63;;;26.73;42.63
61554;BME280;47425;51.976;5.326;2023-07-13T10:07:07;101497.47;;;26.66;41.98
61554;BME280;47425;51.976;5.326;2023-07-13T10:09:36;101500.75;;;26.58;42.17
61554;BME280;47425;51.976;5.326;2023-07-13T10:12:04;101504.25;;;26.36;43.75
61554;BME280;47425;51.976;5.326;2023-07-13T10:14:41;101509.56;;;26.13;44.22
61554;BME280;47425;51.976;5.326;2023-07-13T10:17:13;101503.91;;;25.81;45.10
61554;BME280;47425;51.976;5.326;2023-07-13T10:19:42;101502.22;;;25.67;45.42
61554;BME280;47425;51.976;5.326;2023-07-13T10:22:16;101517.13;;;25.71;45.89
61554;BME280;47425;51.976;5.326;2023-07-13T10:24:52;101528.34;;;25.52;45.99
61554;BME280;47425;51.976;5.326;2023-07-13T10:27:28;101529.28;;;25.14;46.48
61554;BME280;47425;51.976;5.326;2023-07-13T10:30:02;101540.66;;;24.92;47.93
61554;BME280;47425;51.976;5.326;2023-07-13T10:32:38;101541.09;;;24.86;47.71
61554;BME280;47425;51.976;5.326;2023-07-13T10:35:09;101531.88;;;24.90;47.93
61554;BME280;47425;51.976;5.326;2023-07-13T10:37:45;101538.41;;;24.99;47.24
61554;BME280;47425;51.976;5.326;2023-07-13T10:40:22;101525.00;;;25.11;47.07
61554;BME280;47425;51.976;5.326;2023-07-13T10:42:54;101530.44;;;25.23;47.39
61554;BME280;47425;51.976;5.326;2023-07-13T10:45:26;101541.91;;;25.25;47.05
61554;BME280;47425;51.976;5.326;2023-07-13T10:47:58;101556.28;;;25.11;47.18
61554;BME280;47425;51.976;5.326;2023-07-13T10:50:27;101549.88;;;24.88;47.46
61554;BME280;47425;51.976;5.326;2023-07-13T10:53:02;101546.53;;;24.84;46.74
61554;BME280;47425;51.976;5.326;2023-07-13T10:55:35;101547.72;;;24.93;47.26
61554;BME280;47425;51.976;5.326;2023-07-13T10:58:27;101532.50;;;25.06;47.58
61554;BME280;47425;51.976;5.326;2023-07-13T11:01:01;101532.47;;;25.19;46.74
61554;BME280;47425;51.976;5.326;2023-07-13T11:03:37;101536.44;;;25.13;46.91
61554;BME280;47425;51.976;5.326;2023-07-13T11:06:09;101536.88;;;25.20;46.47
61554;BME280;47425;51.976;5.326;2023-07-13T11:08:38;101531.63;;;25.19;47.17
61554;BME280;47425;51.976;5.326;2023-07-13T11:11:34;101543.41;;;25.16;46.43
61554;BME280;47425;51.976;5.326;2023-07-13T11:14:04;101547.94;;;25.16;46.29
61554;BME280;47425;51.976;5.326;2023-07-13T11:16:43;101538.50;;;25.36;46.36
61554;BME280;47425;51.976;5.326;2023-07-13T11:19:48;101552.06;;;25.58;45.51
61554;BME280;47425;51.976;5.326;2023-07-13T11:22:37;101552.06;;;25.58;44.90
61554;BME280;47425;51.976;5.326;2023-07-13T11:25:26;101539.13;;;25.26;45.59
61554;BME280;47425;51.976;5.326;2023-07-13T11:28:12;101548.78;;;25.29;45.13
61554;BME280;47425;51.976;5.326;2023-07-13T11:30:48;101535.75;;;25.49;45.46
61554;BME280;47425;51.976;5.326;2023-07-13T11:33:19;101540.81;;;25.53;45.44
61554;BME280;47425;51.976;5.326;2023-07-13T11:35:53;101541.13;;;25.49;44.67
61554;BME280;47425;51.976;5.326;2023-07-13T11:38:30;101537.97;;;25.68;45.28
61554;BME280;47425;51.976;5.326;2023-07-13T11:41:02;101548.53;;;25.82;44.34
61554;BME280;47425;51.976;5.326;2023-07-13T11:43:30;101546.53;;;25.73;45.40
61554;BME280;47425;51.976;5.326;2023-07-13T11:46:12;101549.41;;;25.83;44.39
61554;BME280;47425;51.976;5.326;2023-07-13T11:48:44;101548.38;;;25.96;44.91
61554;BME280;47425;51.976;5.326;2023-07-13T11:51:21;101553.03;;;26.19;44.54
61554;BME280;47425;51.976;5.326;2023-07-13T11:53:53;101551.69;;;26.24;43.86
61554;BME280;47425;51.976;5.326;2023-07-13T11:56:21;101553.75;;;26.21;43.17
61554;BME280;47425;51.976;5.326;2023-07-13T11:58:51;101551.97;;;26.33;43.39
61554;BME280;47425;51.976;5.326;2023-07-13T12:01:22;101556.97;;;26.37;43.63
61554;BME280;47425;51.976;5.326;2023-07-13T12:03:53;101547.00;;;26.51;41.83
61554;BME280;47425;51.976;5.326;2023-07-13T12:06:26;101542.31;;;26.41;42.03
61554;BME280;47425;51.976;5.326;2023-07-13T12:08:56;101554.13;;;26.27;42.19
61554;BME280;47425;51.976;5.326;2023-07-13T12:11:24;101558.00;;;26.12;42.12
61554;BME280;47425;51.976;5.326;2023-07-13T12:13:52;101554.94;;;26.17;41.81
61554;BME280;47425;51.976;5.326;2023-07-13T12:16:26;101554.50;;;26.23;41.43
61554;BME280;47425;51.976;5.326;2023-07-13T12:18:55;101546.09;;;26.27;40.23
61554;BME280;47425;51.976;5.326;2023-07-13T12:21:30;101559.22;;;26.19;42.23
61554;BME280;47425;51.976;5.326;2023-07-13T12:23:59;101561.34;;;26.27;43.15
61554;BME280;47425;51.976;5.326;2023-07-13T12:26:28;101561.63;;;26.46;40.47
61554;BME280;47425;51.976;5.326;2023-07-13T12:29:01;101554.53;;;26.34;42.06
61554;BME280;47425;51.976;5.326;2023-07-13T12:31:35;101555.41;;;26.46;41.17
61554;BME280;47425;51.976;5.326;2023-07-13T12:34:07;101554.94;;;26.52;42.46
61554;BME280;47425;51.976;5.326;2023-07-13T12:36:38;101561.31;;;26.62;39.31
61554;BME280;47425;51.976;5.326;2023-07-13T12:39:16;101560.09;;;26.55;40.34
61554;BME280;47425;51.976;5.326;2023-07-13T12:41:46;101550.44;;;26.64;41.95
61554;BME280;47425;51.976;5.326;2023-07-13T12:44:40;101569.81;;;26.81;41.13
61554;BME280;47425;51.976;5.326;2023-07-13T12:47:15;101551.00;;;26.81;41.38
61554;BME280;47425;51.976;5.326;2023-07-13T12:49:43;101560.28;;;26.88;39.98
61554;BME280;47425;51.976;5.326;2023-07-13T12:52:20;101559.66;;;26.84;41.24
61554;BME280;47425;51.976;5.326;2023-07-13T12:54:56;101549.06;;;26.94;41.16
61554;BME280;47425;51.976;5.326;2023-07-13T12:57:25;101555.31;;;27.17;40.48
61554;BME280;47425;51.976;5.326;2023-07-13T12:59:53;101564.34;;;27.05;38.43
61554;BME280;47425;51.976;5.326;2023-07-13T13:02:29;101559.91;;;26.92;40.27
61554;BME280;47425;51.976;5.326;2023-07-13T13:04:58;101559.91;;;26.92;38.34
61554;BME280;47425;51.976;5.326;2023-07-13T13:07:27;101558.28;;;26.67;40.26
61554;BME280;47425;51.976;5.326;2023-07-13T13:09:55;101554.22;;;26.50;41.06